sensor_id;sensor_type;location;lat;lon;timestamp;P1;durP1;ratioP1;P2;durP2;ratioP2
75928;SDS011;64606;44.062;2.986;2022-11-20T00:01:48;6.25;;;2.30;;
75928;SDS011;64606;44.062;2.986;2022-11-20T00:04:14;4.88;;;2.00;;
75928;SDS011;64606;44.062;2.986;2022-11-20T00:06:41;5.88;;;2.35;;
75928;SDS011;64606;44.062;2.986;2022-11-20T00:09:09;4.95;;;1.70;;
75928;SDS011;64606;44.062;2.986;2022-11-20T00:11:35;3.95;;;1.88;;
75928;SDS011;64606;44.062;2.986;2022-11-20T00:14:01;7.35;;;1.92;;
75928;SDS011;64606;44.062;2.986;2022-11-20T00:16:28;4.30;;;1.45;;
75928;SDS011;64606;44.062;2.986;2022-11-20T00:18:55;5.15;;;1.70;;
75928;SDS011;64606;44.062;2.986;2022-11-20T00:21:23;4.82;;;2.05;;
75928;SDS011;64606;44.062;2.986;2022-11-20T00:23:49;4.55;;;1.58;;
75928;SDS011;64606;44.062;2.986;2022-11-20T00:26:17;7.70;;;1.98;;
75928;SDS011;64606;44.062;2.986;2022-11-20T00:28:44;3.92;;;1.58;;
75928;SDS011;64606;44.062;2.986;2022-11-20T00:31:11;4.38;;;1.70;;
75928;SDS011;64606;44.062;2.986;2022-11-20T00:33:38;10.48;;;4.07;;
75928;SDS011;64606;44.062;2.986;2022-11-20T00:36:05;10.68;;;4.78;;
75928;SDS011;64606;44.062;2.986;2022-11-20T00:38:32;15.32;;;6.72;;
75928;SDS011;64606;44.062;2.986;2022-11-20T00:40:59;13.25;;;5.53;;
75928;SDS011;64606;44.062;2.986;2022-11-20T00:43:25;14.95;;;5.00;;
75928;SDS011;64606;44.062;2.986;2022-11-20T00:46:02;10.45;;;4.57;;
75928;SDS011;64606;44.062;2.986;2022-11-20T00:48:28;12.52;;;4.85;;
75928;SDS011;64606;44.062;2.986;2022-11-20T00:50:54;11.68;;;5.03;;
75928;SDS011;64606;44.062;2.986;2022-11-20T00:53:20;5.70;;;2.08;;
75928;SDS011;64606;44.062;2.986;2022-11-20T00:55:53;10.48;;;3.70;;
75928;SDS011;64606;44.062;2.986;2022-11-20T00:58:20;13.93;;;5.60;;
75928;SDS011;64606;44.062;2.986;2022-11-20T01:00:46;13.02;;;4.85;;
75928;SDS011;64606;44.062;2.986;2022-11-20T01:03:12;15.02;;;5.00;;
75928;SDS011;64606;44.062;2.986;2022-11-20T01:05:39;11.38;;;4.35;;
75928;SDS011;64606;44.062;2.986;2022-11-20T01:08:05;19.88;;;5.65;;
75928;SDS011;64606;44.062;2.986;2022-11-20T01:10:31;12.93;;;4.68;;
75928;SDS011;64606;44.062;2.986;2022-11-20T01:12:57;11.43;;;4.03;;
75928;SDS011;64606;44.062;2.986;2022-11-20T01:15:42;11.07;;;3.67;;
75928;SDS011;64606;44.062;2.986;2022-11-20T01:18:08;8.70;;;3.03;;
75928;SDS011;64606;44.062;2.986;2022-11-20T01:20:34;7.93;;;3.20;;
75928;SDS011;64606;44.062;2.986;2022-11-20T01:23:01;9.18;;;3.72;;
75928;SDS011;64606;44.062;2.986;2022-11-20T01:25:27;8.10;;;3.20;;
75928;SDS011;64606;44.062;2.986;2022-11-20T01:27:53;8.32;;;2.58;;
75928;SDS011;64606;44.062;2.986;2022-11-20T01:30:19;7.50;;;3.08;;
75928;SDS011;64606;44.062;2.986;2022-11-20T01:32:45;10.38;;;3.78;;
75928;SDS011;64606;44.062;2.986;2022-11-20T01:35:11;6.82;;;2.42;;
75928;SDS011;64606;44.062;2.986;2022-11-20T01:37:38;5.85;;;1.65;;
75928;SDS011;64606;44.062;2.986;2022-11-20T01:40:04;6.72;;;1.73;;
75928;SDS011;64606;44.062;2.986;2022-11-20T01:42:30;4.32;;;1.40;;
75928;SDS011;64606;44.062;2.986;2022-11-20T01:48:00;8.43;;;1.60;;
75928;SDS011;64606;44.062;2.986;2022-11-20T01:50:27;8.15;;;1.88;;
75928;SDS011;64606;44.062;2.986;2022-11-20T01:52:58;4.68;;;1.48;;
75928;SDS011;64606;44.062;2.986;2022-11-20T01:55:26;5.85;;;1.85;;
75928;SDS011;64606;44.062;2.986;2022-11-20T01:57:54;4.40;;;1.33;;
75928;SDS011;64606;44.062;2.986;2022-11-20T02:00:21;6.43;;;1.40;;
75928;SDS011;64606;44.062;2.986;2022-11-20T02:02:48;8.30;;;1.73;;
75928;SDS011;64606;44.062;2.986;2022-11-20T02:07:57;3.95;;;1.20;;
75928;SDS011;64606;44.062;2.986;2022-11-20T02:10:24;8.55;;;1.80;;
75928;SDS011;64606;44.062;2.986;2022-11-20T02:12:51;3.45;;;1.35;;
75928;SDS011;64606;44.062;2.986;2022-11-20T02:15:36;5.22;;;1.63;;
75928;SDS011;64606;44.062;2.986;2022-11-20T02:18:03;3.25;;;1.40;;
75928;SDS011;64606;44.062;2.986;2022-11-20T02:20:30;3.72;;;1.48;;
75928;SDS011;64606;44.062;2.986;2022-11-20T02:22:57;6.50;;;1.88;;
75928;SDS011;64606;44.062;2.986;2022-11-20T02:25:25;8.38;;;1.35;;
75928;SDS011;64606;44.062;2.986;2022-11-20T02:27:52;5.90;;;1.25;;
75928;SDS011;64606;44.062;2.986;2022-11-20T02:30:18;6.70;;;1.20;;
75928;SDS011;64606;44.062;2.986;2022-11-20T02:32:44;4.45;;;1.02;;
75928;SDS011;64606;44.062;2.986;2022-11-20T02:37:50;6.00;;;1.08;;
75928;SDS011;64606;44.062;2.986;2022-11-20T02:40:16;6.13;;;1.65;;
75928;SDS011;64606;44.062;2.986;2022-11-20T02:42:42;11.70;;;2.40;;
75928;SDS011;64606;44.062;2.986;2022-11-20T02:45:09;4.90;;;1.55;;
75928;SDS011;64606;44.062;2.986;2022-11-20T02:47:35;5.28;;;1.02;;
75928;SDS011;64606;44.062;2.986;2022-11-20T02:50:01;7.95;;;1.38;;
75928;SDS011;64606;44.062;2.986;2022-11-20T02:52:27;6.45;;;1.75;;
75928;SDS011;64606;44.062;2.986;2022-11-20T02:54:53;4.53;;;1.65;;
75928;SDS011;64606;44.062;2.986;2022-11-20T02:57:19;6.80;;;1.70;;
75928;SDS011;64606;44.062;2.986;2022-11-20T02:59:45;5.85;;;1.38;;
75928;SDS011;64606;44.062;2.986;2022-11-20T03:02:11;5.68;;;1.30;;
75928;SDS011;64606;44.062;2.986;2022-11-20T03:04:38;9.65;;;1.85;;
75928;SDS011;64606;44.062;2.986;2022-11-20T03:07:04;6.10;;;1.75;;
75928;SDS011;64606;44.062;2.986;2022-11-20T03:09:30;5.38;;;1.27;;
75928;SDS011;64606;44.062;2.986;2022-11-20T03:11:56;8.05;;;1.63;;
75928;SDS011;64606;44.062;2.986;2022-11-20T03:14:22;6.43;;;1.48;;
75928;SDS011;64606;44.062;2.986;2022-11-20T03:16:48;10.30;;;1.70;;
75928;SDS011;64606;44.062;2.986;2022-11-20T03:19:14;8.57;;;2.50;;
75928;SDS011;64606;44.062;2.986;2022-11-20T03:21:40;8.20;;;1.77;;
75928;SDS011;64606;44.062;2.986;2022-11-20T03:24:06;7.55;;;2.45;;
75928;SDS011;64606;44.062;2.986;2022-11-20T03:26:33;12.73;;;3.50;;
75928;SDS011;64606;44.062;2.986;2022-11-20T03:28:59;8.98;;;2.88;;
75928;SDS011;64606;44.062;2.986;2022-11-20T03:31:27;7.75;;;2.30;;
75928;SDS011;64606;44.062;2.986;2022-11-20T03:33:54;7.20;;;1.80;;
75928;SDS011;64606;44.062;2.986;2022-11-20T03:36:20;8.40;;;1.80;;
75928;SDS011;64606;44.062;2.986;2022-11-20T03:38:46;5.63;;;1.42;;
75928;SDS011;64606;44.062;2.986;2022-11-20T03:41:14;6.47;;;1.70;;
75928;SDS011;64606;44.062;2.986;2022-11-20T03:44:00;5.55;;;1.80;;
75928;SDS011;64606;44.062;2.986;2022-11-20T03:46:27;5.65;;;1.58;;
75928;SDS011;64606;44.062;2.986;2022-11-20T03:48:53;5.07;;;1.10;;
75928;SDS011;64606;44.062;2.986;2022-11-20T03:51:30;7.55;;;1.67;;
75928;SDS011;64606;44.062;2.986;2022-11-20T03:53:57;7.85;;;1.60;;
75928;SDS011;64606;44.062;2.986;2022-11-20T03:56:24;7.38;;;1.70;;
75928;SDS011;64606;44.062;2.986;2022-11-20T03:58:50;5.72;;;1.42;;
75928;SDS011;64606;44.062;2.986;2022-11-20T04:01:18;3.65;;;1.30;;
75928;SDS011;64606;44.062;2.986;2022-11-20T04:03:44;4.70;;;1.25;;
75928;SDS011;64606;44.062;2.986;2022-11-20T04:08:40;5.63;;;1.33;;
75928;SDS011;64606;44.062;2.986;2022-11-20T04:11:17;5.22;;;1.10;;
75928;SDS011;64606;44.062;2.986;2022-11-20T04:13:46;5.43;;;1.20;;
75928;SDS011;64606;44.062;2.986;2022-11-20T04:16:13;3.55;;;1.08;;
75928;SDS011;64606;44.062;2.986;2022-11-20T04:18:39;7.47;;;1.50;;
75928;SDS011;64606;44.062;2.986;2022-11-20T04:21:05;4.68;;;1.30;;
75928;SDS011;64606;44.062;2.986;2022-11-20T04:23:32;5.82;;;1.20;;
75928;SDS011;64606;44.062;2.986;2022-11-20T04:26:02;7.45;;;1.83;;
75928;SDS011;64606;44.062;2.986;2022-11-20T04:28:29;4.75;;;1.40;;
75928;SDS011;64606;44.062;2.986;2022-11-20T04:31:00;8.50;;;1.48;;
75928;SDS011;64606;44.062;2.986;2022-11-20T04:33:27;5.95;;;1.63;;
75928;SDS011;64606;44.062;2.986;2022-11-20T04:35:53;6.65;;;1.80;;
75928;SDS011;64606;44.062;2.986;2022-11-20T04:38:19;7.38;;;1.83;;
75928;SDS011;64606;44.062;2.986;2022-11-20T04:40:45;5.13;;;1.42;;
75928;SDS011;64606;44.062;2.986;2022-11-20T04:43:11;4.18;;;1.40;;
75928;SDS011;64606;44.062;2.986;2022-11-20T04:45:37;7.30;;;1.83;;
75928;SDS011;64606;44.062;2.986;2022-11-20T04:48:03;3.95;;;1.70;;
75928;SDS011;64606;44.062;2.986;2022-11-20T04:50:30;10.15;;;1.90;;
75928;SDS011;64606;44.062;2.986;2022-11-20T04:52:56;6.63;;;1.90;;
75928;SDS011;64606;44.062;2.986;2022-11-20T04:55:22;6.72;;;1.92;;
75928;SDS011;64606;44.062;2.986;2022-11-20T04:57:49;8.38;;;1.95;;
75928;SDS011;64606;44.062;2.986;2022-11-20T05:00:16;5.75;;;1.55;;
75928;SDS011;64606;44.062;2.986;2022-11-20T05:02:42;8.15;;;2.00;;
75928;SDS011;64606;44.062;2.986;2022-11-20T05:05:08;5.75;;;1.65;;
75928;SDS011;64606;44.062;2.986;2022-11-20T05:07:34;4.03;;;1.75;;
75928;SDS011;64606;44.062;2.986;2022-11-20T05:10:00;7.28;;;2.00;;
75928;SDS011;64606;44.062;2.986;2022-11-20T05:12:27;5.25;;;1.30;;
75928;SDS011;64606;44.062;2.986;2022-11-20T05:14:53;7.13;;;1.50;;
75928;SDS011;64606;44.062;2.986;2022-11-20T05:17:19;6.78;;;1.33;;
75928;SDS011;64606;44.062;2.986;2022-11-20T05:19:45;4.00;;;1.65;;
75928;SDS011;64606;44.062;2.986;2022-11-20T05:22:12;7.00;;;1.25;;
75928;SDS011;64606;44.062;2.986;2022-11-20T05:24:38;5.90;;;1.40;;
75928;SDS011;64606;44.062;2.986;2022-11-20T05:27:04;4.30;;;1.10;;
75928;SDS011;64606;44.062;2.986;2022-11-20T05:29:30;5.20;;;1.55;;
75928;SDS011;64606;44.062;2.986;2022-11-20T05:31:56;6.50;;;1.77;;
75928;SDS011;64606;44.062;2.986;2022-11-20T05:34:22;14.40;;;3.67;;
75928;SDS011;64606;44.062;2.986;2022-11-20T05:36:48;157.68;;;56.72;;
75928;SDS011;64606;44.062;2.986;2022-11-20T05:39:14;87.30;;;31.30;;
75928;SDS011;64606;44.062;2.986;2022-11-20T05:41:41;32.83;;;10.90;;
75928;SDS011;64606;44.062;2.986;2022-11-20T05:44:07;25.95;;;10.25;;
75928;SDS011;64606;44.062;2.986;2022-11-20T05:46:33;20.42;;;7.15;;
75928;SDS011;64606;44.062;2.986;2022-11-20T05:48:59;20.00;;;7.85;;
75928;SDS011;64606;44.062;2.986;2022-11-20T05:51:25;16.20;;;6.68;;
75928;SDS011;64606;44.062;2.986;2022-11-20T05:53:51;12.65;;;4.63;;
75928;SDS011;64606;44.062;2.986;2022-11-20T05:56:18;15.77;;;7.55;;
75928;SDS011;64606;44.062;2.986;2022-11-20T05:58:45;18.48;;;8.18;;
75928;SDS011;64606;44.062;2.986;2022-11-20T06:01:13;14.88;;;7.75;;
75928;SDS011;64606;44.062;2.986;2022-11-20T06:03:40;15.88;;;6.90;;
75928;SDS011;64606;44.062;2.986;2022-11-20T06:06:07;14.65;;;5.82;;
75928;SDS011;64606;44.062;2.986;2022-11-20T06:08:34;19.88;;;6.40;;
75928;SDS011;64606;44.062;2.986;2022-11-20T06:11:03;16.75;;;5.78;;
75928;SDS011;64606;44.062;2.986;2022-11-20T06:13:30;11.57;;;4.97;;
75928;SDS011;64606;44.062;2.986;2022-11-20T06:15:56;12.65;;;5.80;;
75928;SDS011;64606;44.062;2.986;2022-11-20T06:18:22;15.45;;;5.40;;
75928;SDS011;64606;44.062;2.986;2022-11-20T06:20:48;30.88;;;10.27;;
75928;SDS011;64606;44.062;2.986;2022-11-20T06:23:14;15.73;;;5.65;;
75928;SDS011;64606;44.062;2.986;2022-11-20T06:25:41;44.40;;;13.90;;
75928;SDS011;64606;44.062;2.986;2022-11-20T06:28:07;26.00;;;8.40;;
75928;SDS011;64606;44.062;2.986;2022-11-20T06:30:34;22.10;;;9.95;;
75928;SDS011;64606;44.062;2.986;2022-11-20T06:33:00;20.27;;;7.28;;
75928;SDS011;64606;44.062;2.986;2022-11-20T06:35:26;17.60;;;7.53;;
75928;SDS011;64606;44.062;2.986;2022-11-20T06:37:52;43.63;;;23.35;;
75928;SDS011;64606;44.062;2.986;2022-11-20T06:40:18;23.52;;;11.32;;
75928;SDS011;64606;44.062;2.986;2022-11-20T06:42:44;17.33;;;6.75;;
75928;SDS011;64606;44.062;2.986;2022-11-20T06:45:11;28.95;;;11.65;;
75928;SDS011;64606;44.062;2.986;2022-11-20T06:47:37;16.33;;;7.38;;
75928;SDS011;64606;44.062;2.986;2022-11-20T06:50:03;27.42;;;11.52;;
75928;SDS011;64606;44.062;2.986;2022-11-20T06:52:29;18.85;;;10.23;;
75928;SDS011;64606;44.062;2.986;2022-11-20T06:54:55;14.18;;;6.05;;
75928;SDS011;64606;44.062;2.986;2022-11-20T06:57:21;22.67;;;10.65;;
75928;SDS011;64606;44.062;2.986;2022-11-20T06:59:47;19.63;;;8.27;;
75928;SDS011;64606;44.062;2.986;2022-11-20T07:02:13;19.10;;;6.30;;
75928;SDS011;64606;44.062;2.986;2022-11-20T07:04:39;19.98;;;6.95;;
75928;SDS011;64606;44.062;2.986;2022-11-20T07:07:06;30.00;;;11.18;;
75928;SDS011;64606;44.062;2.986;2022-11-20T07:09:32;20.10;;;8.10;;
75928;SDS011;64606;44.062;2.986;2022-11-20T07:11:59;21.25;;;10.20;;
75928;SDS011;64606;44.062;2.986;2022-11-20T07:14:25;16.75;;;7.00;;
75928;SDS011;64606;44.062;2.986;2022-11-20T07:16:51;8.90;;;4.30;;
75928;SDS011;64606;44.062;2.986;2022-11-20T07:19:17;18.05;;;6.00;;
75928;SDS011;64606;44.062;2.986;2022-11-20T07:21:44;9.00;;;4.43;;
75928;SDS011;64606;44.062;2.986;2022-11-20T07:24:10;11.43;;;5.20;;
75928;SDS011;64606;44.062;2.986;2022-11-20T07:26:36;11.50;;;5.50;;
75928;SDS011;64606;44.062;2.986;2022-11-20T07:29:02;15.25;;;5.75;;
75928;SDS011;64606;44.062;2.986;2022-11-20T07:31:28;7.57;;;3.60;;
75928;SDS011;64606;44.062;2.986;2022-11-20T07:33:54;8.65;;;3.33;;
75928;SDS011;64606;44.062;2.986;2022-11-20T07:36:20;25.42;;;9.65;;
75928;SDS011;64606;44.062;2.986;2022-11-20T07:38:46;12.00;;;4.03;;
75928;SDS011;64606;44.062;2.986;2022-11-20T07:41:13;44.42;;;16.40;;
75928;SDS011;64606;44.062;2.986;2022-11-20T07:43:39;26.88;;;10.23;;
75928;SDS011;64606;44.062;2.986;2022-11-20T07:46:05;31.95;;;12.48;;
75928;SDS011;64606;44.062;2.986;2022-11-20T07:48:31;56.63;;;19.40;;
75928;SDS011;64606;44.062;2.986;2022-11-20T07:50:57;49.45;;;20.67;;
75928;SDS011;64606;44.062;2.986;2022-11-20T07:53:23;62.55;;;26.95;;
75928;SDS011;64606;44.062;2.986;2022-11-20T07:55:50;55.33;;;21.38;;
75928;SDS011;64606;44.062;2.986;2022-11-20T07:58:19;45.65;;;19.90;;
75928;SDS011;64606;44.062;2.986;2022-11-20T08:00:45;33.42;;;14.95;;
75928;SDS011;64606;44.062;2.986;2022-11-20T08:03:11;37.67;;;15.02;;
75928;SDS011;64606;44.062;2.986;2022-11-20T08:05:38;27.13;;;12.73;;
75928;SDS011;64606;44.062;2.986;2022-11-20T08:08:04;26.33;;;12.32;;
75928;SDS011;64606;44.062;2.986;2022-11-20T08:10:31;25.55;;;11.82;;
75928;SDS011;64606;44.062;2.986;2022-11-20T08:12:57;19.65;;;9.40;;
75928;SDS011;64606;44.062;2.986;2022-11-20T08:15:47;23.65;;;10.25;;
75928;SDS011;64606;44.062;2.986;2022-11-20T08:18:13;24.60;;;10.52;;
75928;SDS011;64606;44.062;2.986;2022-11-20T08:20:39;18.95;;;8.98;;
75928;SDS011;64606;44.062;2.986;2022-11-20T08:23:06;28.95;;;13.73;;
75928;SDS011;64606;44.062;2.986;2022-11-20T08:25:33;31.98;;;15.40;;
75928;SDS011;64606;44.062;2.986;2022-11-20T08:28:00;19.80;;;9.43;;
75928;SDS011;64606;44.062;2.986;2022-11-20T08:30:27;22.02;;;7.55;;
75928;SDS011;64606;44.062;2.986;2022-11-20T08:32:53;21.40;;;9.30;;
75928;SDS011;64606;44.062;2.986;2022-11-20T08:35:20;16.30;;;7.13;;
75928;SDS011;64606;44.062;2.986;2022-11-20T08:37:46;16.63;;;7.78;;
75928;SDS011;64606;44.062;2.986;2022-11-20T08:40:13;23.50;;;9.88;;
75928;SDS011;64606;44.062;2.986;2022-11-20T08:42:46;23.77;;;9.98;;
75928;SDS011;64606;44.062;2.986;2022-11-20T08:45:12;24.80;;;12.02;;
75928;SDS011;64606;44.062;2.986;2022-11-20T08:47:38;18.33;;;9.02;;
75928;SDS011;64606;44.062;2.986;2022-11-20T08:50:04;13.65;;;5.72;;
75928;SDS011;64606;44.062;2.986;2022-11-20T08:52:31;13.13;;;6.07;;
75928;SDS011;64606;44.062;2.986;2022-11-20T08:54:57;9.95;;;5.75;;
75928;SDS011;64606;44.062;2.986;2022-11-20T08:57:23;9.63;;;4.72;;
75928;SDS011;64606;44.062;2.986;2022-11-20T08:59:49;10.77;;;4.25;;
75928;SDS011;64606;44.062;2.986;2022-11-20T09:02:15;14.23;;;4.97;;
75928;SDS011;64606;44.062;2.986;2022-11-20T09:04:41;9.98;;;3.97;;
75928;SDS011;64606;44.062;2.986;2022-11-20T09:07:07;9.18;;;3.47;;
75928;SDS011;64606;44.062;2.986;2022-11-20T09:09:33;50.38;;;7.28;;
75928;SDS011;64606;44.062;2.986;2022-11-20T09:11:59;22.88;;;5.03;;
75928;SDS011;64606;44.062;2.986;2022-11-20T09:14:26;27.30;;;5.32;;
75928;SDS011;64606;44.062;2.986;2022-11-20T09:16:54;20.15;;;5.57;;
75928;SDS011;64606;44.062;2.986;2022-11-20T09:19:20;16.23;;;4.00;;
75928;SDS011;64606;44.062;2.986;2022-11-20T09:21:46;10.80;;;3.50;;
75928;SDS011;64606;44.062;2.986;2022-11-20T09:24:13;40.45;;;5.43;;
75928;SDS011;64606;44.062;2.986;2022-11-20T09:26:39;14.32;;;2.75;;
75928;SDS011;64606;44.062;2.986;2022-11-20T09:29:05;19.40;;;2.70;;
75928;SDS011;64606;44.062;2.986;2022-11-20T09:31:31;8.27;;;1.90;;
75928;SDS011;64606;44.062;2.986;2022-11-20T09:33:57;3.20;;;1.40;;
75928;SDS011;64606;44.062;2.986;2022-11-20T09:36:24;5.93;;;1.52;;
75928;SDS011;64606;44.062;2.986;2022-11-20T09:38:50;10.73;;;2.22;;
75928;SDS011;64606;44.062;2.986;2022-11-20T09:44:07;4.10;;;1.80;;
75928;SDS011;64606;44.062;2.986;2022-11-20T09:54:31;9.30;;;1.75;;
75928;SDS011;64606;44.062;2.986;2022-11-20T09:57:03;4.55;;;1.63;;
75928;SDS011;64606;44.062;2.986;2022-11-20T09:59:33;8.50;;;1.80;;
75928;SDS011;64606;44.062;2.986;2022-11-20T10:02:00;6.30;;;1.90;;
75928;SDS011;64606;44.062;2.986;2022-11-20T10:04:26;7.28;;;1.73;;
75928;SDS011;64606;44.062;2.986;2022-11-20T10:07:16;14.57;;;3.28;;
75928;SDS011;64606;44.062;2.986;2022-11-20T10:09:47;4.20;;;1.65;;
75928;SDS011;64606;44.062;2.986;2022-11-20T10:14:54;7.38;;;1.90;;
75928;SDS011;64606;44.062;2.986;2022-11-20T10:20:16;8.60;;;1.60;;
75928;SDS011;64606;44.062;2.986;2022-11-20T10:25:19;6.97;;;2.08;;
75928;SDS011;64606;44.062;2.986;2022-11-20T10:30:15;7.88;;;1.92;;
75928;SDS011;64606;44.062;2.986;2022-11-20T10:32:43;7.97;;;1.23;;
75928;SDS011;64606;44.062;2.986;2022-11-20T10:37:41;6.93;;;1.60;;
75928;SDS011;64606;44.062;2.986;2022-11-20T10:42:47;7.03;;;1.60;;
75928;SDS011;64606;44.062;2.986;2022-11-20T10:47:54;9.82;;;1.98;;
75928;SDS011;64606;44.062;2.986;2022-11-20T10:50:22;6.15;;;1.30;;
75928;SDS011;64606;44.062;2.986;2022-11-20T10:55:40;8.05;;;1.55;;
75928;SDS011;64606;44.062;2.986;2022-11-20T10:58:10;5.85;;;1.90;;
75928;SDS011;64606;44.062;2.986;2022-11-20T11:00:39;6.00;;;1.85;;
75928;SDS011;64606;44.062;2.986;2022-11-20T11:03:14;11.85;;;4.38;;
75928;SDS011;64606;44.062;2.986;2022-11-20T11:05:47;10.43;;;4.68;;
75928;SDS011;64606;44.062;2.986;2022-11-20T11:08:15;8.60;;;2.67;;
75928;SDS011;64606;44.062;2.986;2022-11-20T11:10:53;7.80;;;3.40;;
75928;SDS011;64606;44.062;2.986;2022-11-20T11:13:27;8.38;;;2.30;;
75928;SDS011;64606;44.062;2.986;2022-11-20T11:15:53;4.97;;;1.17;;
75928;SDS011;64606;44.062;2.986;2022-11-20T11:18:30;4.32;;;1.23;;
75928;SDS011;64606;44.062;2.986;2022-11-20T11:20:57;4.25;;;1.35;;
75928;SDS011;64606;44.062;2.986;2022-11-20T11:25:56;4.80;;;1.40;;
75928;SDS011;64606;44.062;2.986;2022-11-20T11:28:23;6.75;;;1.20;;
75928;SDS011;64606;44.062;2.986;2022-11-20T11:30:52;4.57;;;0.95;;
75928;SDS011;64606;44.062;2.986;2022-11-20T11:33:19;6.75;;;1.13;;
75928;SDS011;64606;44.062;2.986;2022-11-20T11:35:49;5.65;;;1.20;;
75928;SDS011;64606;44.062;2.986;2022-11-20T11:38:39;3.90;;;1.60;;
75928;SDS011;64606;44.062;2.986;2022-11-20T11:41:04;5.82;;;1.75;;
75928;SDS011;64606;44.062;2.986;2022-11-20T11:43:34;5.15;;;1.20;;
75928;SDS011;64606;44.062;2.986;2022-11-20T11:48:55;6.93;;;1.45;;
75928;SDS011;64606;44.062;2.986;2022-11-20T11:51:22;5.13;;;1.23;;
75928;SDS011;64606;44.062;2.986;2022-11-20T11:53:49;5.15;;;1.80;;
75928;SDS011;64606;44.062;2.986;2022-11-20T11:56:16;5.90;;;1.98;;
75928;SDS011;64606;44.062;2.986;2022-11-20T11:58:46;5.22;;;1.95;;
75928;SDS011;64606;44.062;2.986;2022-11-20T12:08:55;5.93;;;2.08;;
75928;SDS011;64606;44.062;2.986;2022-11-20T12:11:32;13.38;;;5.40;;
75928;SDS011;64606;44.062;2.986;2022-11-20T12:14:02;7.65;;;2.40;;
75928;SDS011;64606;44.062;2.986;2022-11-20T12:16:31;5.65;;;2.10;;
75928;SDS011;64606;44.062;2.986;2022-11-20T12:18:58;3.55;;;1.27;;
75928;SDS011;64606;44.062;2.986;2022-11-20T12:23:53;2.13;;;1.00;;
75928;SDS011;64606;44.062;2.986;2022-11-20T12:35:10;1.65;;;0.75;;
75928;SDS011;64606;44.062;2.986;2022-11-20T12:37:15;5.78;;;1.17;;
75928;SDS011;64606;44.062;2.986;2022-11-20T12:39:42;4.38;;;1.25;;
75928;SDS011;64606;44.062;2.986;2022-11-20T12:42:14;4.47;;;1.70;;
75928;SDS011;64606;44.062;2.986;2022-11-20T12:45:10;4.15;;;1.58;;
75928;SDS011;64606;44.062;2.986;2022-11-20T12:56:00;4.28;;;1.50;;
75928;SDS011;64606;44.062;2.986;2022-11-20T13:01:07;2.85;;;0.93;;
75928;SDS011;64606;44.062;2.986;2022-11-20T13:03:57;4.30;;;2.45;;
75928;SDS011;64606;44.062;2.986;2022-11-20T13:06:26;5.28;;;1.75;;
75928;SDS011;64606;44.062;2.986;2022-11-20T13:08:53;1.35;;;0.60;;
75928;SDS011;64606;44.062;2.986;2022-11-20T13:16:41;6.15;;;3.40;;
75928;SDS011;64606;44.062;2.986;2022-11-20T13:19:12;3.33;;;1.10;;
75928;SDS011;64606;44.062;2.986;2022-11-20T13:21:40;1.60;;;0.90;;
75928;SDS011;64606;44.062;2.986;2022-11-20T13:24:07;3.75;;;0.60;;
75928;SDS011;64606;44.062;2.986;2022-11-20T13:26:33;1.80;;;1.10;;
75928;SDS011;64606;44.062;2.986;2022-11-20T13:29:17;3.30;;;1.02;;
75928;SDS011;64606;44.062;2.986;2022-11-20T13:31:44;1.50;;;0.50;;
75928;SDS011;64606;44.062;2.986;2022-11-20T13:34:25;1.10;;;0.40;;
75928;SDS011;64606;44.062;2.986;2022-11-20T13:36:53;1.50;;;0.52;;
75928;SDS011;64606;44.062;2.986;2022-11-20T13:39:26;2.20;;;0.60;;
75928;SDS011;64606;44.062;2.986;2022-11-20T13:41:56;3.15;;;0.82;;
75928;SDS011;64606;44.062;2.986;2022-11-20T13:44:33;0.82;;;0.30;;
75928;SDS011;64606;44.062;2.986;2022-11-20T13:47:00;4.30;;;0.50;;
75928;SDS011;64606;44.062;2.986;2022-11-20T13:49:31;8.68;;;0.80;;
75928;SDS011;64606;44.062;2.986;2022-11-20T13:52:18;1.60;;;0.60;;
75928;SDS011;64606;44.062;2.986;2022-11-20T13:57:38;1.30;;;0.47;;
75928;SDS011;64606;44.062;2.986;2022-11-20T14:00:21;2.45;;;0.50;;
75928;SDS011;64606;44.062;2.986;2022-11-20T14:02:59;3.38;;;0.60;;
75928;SDS011;64606;44.062;2.986;2022-11-20T14:05:25;2.88;;;0.77;;
75928;SDS011;64606;44.062;2.986;2022-11-20T14:07:51;1.77;;;0.60;;
75928;SDS011;64606;44.062;2.986;2022-11-20T14:10:23;6.45;;;2.97;;
75928;SDS011;64606;44.062;2.986;2022-11-20T14:12:49;2.33;;;0.70;;
75928;SDS011;64606;44.062;2.986;2022-11-20T14:15:32;1.63;;;0.60;;
75928;SDS011;64606;44.062;2.986;2022-11-20T14:17:58;0.70;;;0.40;;
75928;SDS011;64606;44.062;2.986;2022-11-20T14:20:28;3.53;;;0.70;;
75928;SDS011;64606;44.062;2.986;2022-11-20T14:22:56;3.25;;;1.48;;
75928;SDS011;64606;44.062;2.986;2022-11-20T14:25:23;2.17;;;0.55;;
75928;SDS011;64606;44.062;2.986;2022-11-20T14:27:56;2.47;;;0.50;;
75928;SDS011;64606;44.062;2.986;2022-11-20T14:30:24;2.63;;;0.50;;
75928;SDS011;64606;44.062;2.986;2022-11-20T14:32:51;1.40;;;0.55;;
75928;SDS011;64606;44.062;2.986;2022-11-20T14:37:46;3.38;;;0.60;;
75928;SDS011;64606;44.062;2.986;2022-11-20T14:42:48;10.57;;;4.13;;
75928;SDS011;64606;44.062;2.986;2022-11-20T14:45:15;9.32;;;5.38;;
75928;SDS011;64606;44.062;2.986;2022-11-20T14:47:41;4.32;;;2.33;;
75928;SDS011;64606;44.062;2.986;2022-11-20T14:52:58;7.07;;;6.07;;
75928;SDS011;64606;44.062;2.986;2022-11-20T14:55:34;3.70;;;1.80;;
75928;SDS011;64606;44.062;2.986;2022-11-20T14:58:02;2.47;;;0.70;;
75928;SDS011;64606;44.062;2.986;2022-11-20T15:00:28;1.83;;;0.98;;
75928;SDS011;64606;44.062;2.986;2022-11-20T15:02:55;2.88;;;0.50;;
75928;SDS011;64606;44.062;2.986;2022-11-20T15:05:25;1.25;;;0.55;;
75928;SDS011;64606;44.062;2.986;2022-11-20T15:08:04;1.02;;;0.35;;
75928;SDS011;64606;44.062;2.986;2022-11-20T15:10:30;1.80;;;0.65;;
75928;SDS011;64606;44.062;2.986;2022-11-20T15:13:03;1.55;;;0.55;;
75928;SDS011;64606;44.062;2.986;2022-11-20T15:18:16;4.50;;;1.42;;
75928;SDS011;64606;44.062;2.986;2022-11-20T15:20:42;4.65;;;2.53;;
75928;SDS011;64606;44.062;2.986;2022-11-20T15:23:13;6.95;;;3.88;;
75928;SDS011;64606;44.062;2.986;2022-11-20T15:25:40;4.65;;;3.33;;
75928;SDS011;64606;44.062;2.986;2022-11-20T15:28:26;3.78;;;1.05;;
75928;SDS011;64606;44.062;2.986;2022-11-20T15:30:53;3.75;;;2.08;;
75928;SDS011;64606;44.062;2.986;2022-11-20T15:33:20;4.97;;;1.52;;
75928;SDS011;64606;44.062;2.986;2022-11-20T15:35:46;5.25;;;1.20;;
75928;SDS011;64606;44.062;2.986;2022-11-20T15:38:13;6.43;;;3.70;;
75928;SDS011;64606;44.062;2.986;2022-11-20T15:40:39;5.97;;;3.35;;
75928;SDS011;64606;44.062;2.986;2022-11-20T15:43:05;6.13;;;2.65;;
75928;SDS011;64606;44.062;2.986;2022-11-20T15:45:33;5.30;;;1.90;;
75928;SDS011;64606;44.062;2.986;2022-11-20T15:48:00;3.47;;;0.90;;
75928;SDS011;64606;44.062;2.986;2022-11-20T15:50:29;4.97;;;1.92;;
75928;SDS011;64606;44.062;2.986;2022-11-20T15:52:55;2.63;;;1.30;;
75928;SDS011;64606;44.062;2.986;2022-11-20T15:55:22;3.80;;;1.60;;
75928;SDS011;64606;44.062;2.986;2022-11-20T15:57:48;10.85;;;3.50;;
75928;SDS011;64606;44.062;2.986;2022-11-20T16:00:14;13.80;;;4.68;;
75928;SDS011;64606;44.062;2.986;2022-11-20T16:02:40;4.22;;;1.80;;
75928;SDS011;64606;44.062;2.986;2022-11-20T16:05:09;2.47;;;1.05;;
75928;SDS011;64606;44.062;2.986;2022-11-20T16:07:37;3.30;;;0.80;;
75928;SDS011;64606;44.062;2.986;2022-11-20T16:10:03;4.05;;;1.73;;
75928;SDS011;64606;44.062;2.986;2022-11-20T16:12:29;4.45;;;1.58;;
75928;SDS011;64606;44.062;2.986;2022-11-20T16:15:14;4.50;;;1.92;;
75928;SDS011;64606;44.062;2.986;2022-11-20T16:17:59;6.88;;;1.08;;
75928;SDS011;64606;44.062;2.986;2022-11-20T16:20:25;15.40;;;3.90;;
75928;SDS011;64606;44.062;2.986;2022-11-20T16:22:51;4.30;;;1.40;;
75928;SDS011;64606;44.062;2.986;2022-11-20T16:25:17;6.85;;;2.35;;